TimeEDT,TemperatureF,Dew PointF,Humidity,Sea Level PressureIn,VisibilityMPH,Wind Direction,Wind SpeedMPH,Gust SpeedMPH,PrecipitationIn,Events,Conditions,WindDirDegrees,DateUTC
12:15 AM,62.6,60.8,94,29.97,10.0,ENE,9.2,-,N/A,,Scattered Clouds,70,2013-05-07 04:15:00
12:35 AM,62.6,60.8,94,29.97,10.0,East,9.2,-,N/A,,Mostly Cloudy,80,2013-05-07 04:35:00
12:55 AM,62.6,60.8,94,29.96,10.0,East,8.1,-,N/A,,Scattered Clouds,90,2013-05-07 04:55:00
1:15 AM,62.6,60.8,94,29.95,10.0,East,6.9,-,N/A,,Mostly Cloudy,80,2013-05-07 05:15:00
1:35 AM,62.6,60.8,94,29.95,10.0,ENE,6.9,-,N/A,Thunderstorm,Overcast,70,2013-05-07 05:35:00
1:55 AM,62.6,60.8,94,29.94,7.0,East,4.6,-,N/A,Rain,Rain,80,2013-05-07 05:55:00
2:15 AM,62.6,60.8,94,29.93,10.0,East,6.9,-,0.01,Thunderstorm,Overcast,90,2013-05-07 06:15:00
2:35 AM,62.6,60.8,94,29.92,7.0,East,9.2,-,0.01,Rain,Light Rain,90,2013-05-07 06:35:00
2:55 AM,62.6,60.8,94,29.91,10.0,East,5.8,-,N/A,,Mostly Cloudy,80,2013-05-07 06:55:00
3:15 AM,62.6,60.8,94,29.91,10.0,Calm,Calm,-,N/A,,Scattered Clouds,0,2013-05-07 07:15:00
3:35 AM,60.8,59.0,94,29.92,10.0,ENE,8.1,-,N/A,Rain,Light Rain,70,2013-05-07 07:35:00
3:55 AM,60.8,59.0,94,29.91,7.0,East,8.1,-,0.01,Rain-Thunderstorm,Light Thunderstorms and Rain,80,2013-05-07 07:55:00
4:15 AM,60.8,57.2,88,29.91,10.0,East,6.9,-,0.02,Rain,Light Rain,80,2013-05-07 08:15:00
4:35 AM,60.8,59.0,94,29.91,7.0,East,4.6,-,0.02,Rain,Rain,90,2013-05-07 08:35:00
4:55 AM,60.8,59.0,94,29.91,7.0,ESE,5.8,-,N/A,Rain-Thunderstorm,Light Thunderstorms and Rain,120,2013-05-07 08:55:00
5:15 AM,60.8,60.8,100,29.90,7.0,ESE,5.8,-,0.01,Rain-Thunderstorm,Rain,110,2013-05-07 09:15:00
5:35 AM,60.8,60.8,100,29.90,10.0,ESE,4.6,-,0.02,Rain,Light Rain,120,2013-05-07 09:35:00
6:15 AM,60.8,60.8,100,29.90,10.0,East,6.9,-,N/A,,Overcast,90,2013-05-07 10:15:00
6:35 AM,60.8,59.0,94,29.90,10.0,East,5.8,-,N/A,,Mostly Cloudy,90,2013-05-07 10:35:00
6:55 AM,60.8,60.8,100,29.92,7.0,East,5.8,-,N/A,,Scattered Clouds,90,2013-05-07 10:55:00
7:15 AM,62.6,60.8,94,29.91,7.0,East,9.2,18.4,N/A,,Mostly Cloudy,100,2013-05-07 11:15:00
7:35 AM,62.6,60.8,94,29.91,7.0,Calm,Calm,-,N/A,,Mostly Cloudy,0,2013-05-07 11:35:00
7:55 AM,64.4,60.8,88,29.91,7.0,ESE,8.1,-,N/A,,Mostly Cloudy,110,2013-05-07 11:55:00
8:15 AM,64.4,60.8,88,29.92,10.0,ESE,9.2,-,N/A,,Scattered Clouds,110,2013-05-07 12:15:00
8:35 AM,66.2,62.6,88,29.94,10.0,ESE,9.2,-,N/A,,Scattered Clouds,110,2013-05-07 12:35:00
8:55 AM,64.4,60.8,88,29.94,10.0,East,8.1,-,N/A,,Mostly Cloudy,100,2013-05-07 12:55:00
9:15 AM,64.4,60.8,88,29.94,10.0,East,8.1,-,N/A,,Overcast,100,2013-05-07 13:15:00
9:35 AM,66.2,62.6,88,29.94,10.0,ESE,8.1,-,N/A,,Overcast,110,2013-05-07 13:35:00
9:55 AM,68.0,62.6,83,29.94,10.0,ESE,9.2,-,N/A,Thunderstorm,Overcast,110,2013-05-07 13:55:00
10:15 AM,69.8,62.6,78,29.95,10.0,SE,9.2,-,N/A,,Overcast,130,2013-05-07 14:15:00
10:35 AM,69.8,62.6,78,29.94,10.0,ESE,6.9,-,N/A,,Overcast,120,2013-05-07 14:35:00
10:55 AM,69.8,60.8,73,29.94,10.0,SE,5.8,-,N/A,,Overcast,130,2013-05-07 14:55:00
11:15 AM,71.6,60.8,69,29.94,10.0,ESE,10.4,17.3,N/A,,Mostly Cloudy,110,2013-05-07 15:15:00
11:35 AM,71.6,62.6,73,29.93,10.0,SE,6.9,-,N/A,,Mostly Cloudy,140,2013-05-07 15:35:00
11:55 AM,73.4,60.8,65,29.93,10.0,SE,8.1,-,N/A,,Scattered Clouds,130,2013-05-07 15:55:00
12:15 PM,73.4,59.0,61,29.92,10.0,South,9.2,16.1,N/A,,Scattered Clouds,170,2013-05-07 16:15:00
12:35 PM,75.2,60.8,61,29.92,10.0,SE,10.4,-,N/A,,Scattered Clouds,140,2013-05-07 16:35:00
12:55 PM,73.4,60.8,65,29.92,10.0,South,9.2,-,N/A,,Mostly Cloudy,180,2013-05-07 16:55:00
1:15 PM,75.2,60.8,61,29.91,10.0,South,9.2,-,N/A,,Mostly Cloudy,180,2013-05-07 17:15:00
1:35 PM,75.2,59.0,57,29.90,10.0,South,12.7,-,N/A,,Mostly Cloudy,180,2013-05-07 17:35:00
1:55 PM,75.2,57.2,53,29.90,10.0,South,10.4,-,N/A,,Scattered Clouds,170,2013-05-07 17:55:00
2:15 PM,75.2,57.2,53,29.90,10.0,SSE,10.4,18.4,N/A,,Mostly Cloudy,160,2013-05-07 18:15:00
2:35 PM,77.0,51.8,41,29.89,10.0,South,12.7,19.6,N/A,,Mostly Cloudy,170,2013-05-07 18:35:00
2:55 PM,75.2,51.8,44,29.88,10.0,South,13.8,20.7,N/A,,Scattered Clouds,170,2013-05-07 18:55:00
3:15 PM,77.0,50.0,39,29.88,10.0,South,15.0,-,N/A,,Clear,180,2013-05-07 19:15:00
3:35 PM,75.2,50.0,41,29.88,10.0,SSE,9.2,16.1,N/A,,Clear,150,2013-05-07 19:35:00
3:55 PM,75.2,51.8,44,29.87,10.0,SE,9.2,-,N/A,,Clear,140,2013-05-07 19:55:00
4:15 PM,77.0,51.8,41,29.86,10.0,South,10.4,17.3,N/A,,Scattered Clouds,190,2013-05-07 20:15:00
4:35 PM,75.2,51.8,44,29.87,10.0,South,10.4,-,N/A,,Scattered Clouds,180,2013-05-07 20:35:00
4:55 PM,75.2,51.8,44,29.87,10.0,South,11.5,17.3,N/A,,Scattered Clouds,180,2013-05-07 20:55:00
5:15 PM,73.4,51.8,47,29.87,10.0,South,9.2,-,N/A,,Mostly Cloudy,180,2013-05-07 21:15:00
5:35 PM,71.6,53.6,53,29.88,10.0,SSW,9.2,-,N/A,,Mostly Cloudy,200,2013-05-07 21:35:00
5:55 PM,71.6,55.4,57,29.88,10.0,South,9.2,-,N/A,,Mostly Cloudy,180,2013-05-07 21:55:00
6:15 PM,69.8,53.6,56,29.90,10.0,South,13.8,-,N/A,,Scattered Clouds,180,2013-05-07 22:15:00
6:35 PM,69.8,53.6,56,29.90,10.0,South,8.1,-,N/A,,Scattered Clouds,170,2013-05-07 22:35:00
6:55 PM,69.8,53.6,56,29.92,10.0,South,8.1,-,N/A,,Mostly Cloudy,170,2013-05-07 22:55:00
7:15 PM,68.0,53.6,60,29.91,10.0,SSE,4.6,-,N/A,,Mostly Cloudy,150,2013-05-07 23:15:00
7:35 PM,68.0,53.6,60,29.93,10.0,SSE,8.1,-,N/A,,Overcast,160,2013-05-07 23:35:00
7:55 PM,66.2,53.6,64,29.94,10.0,SSE,6.9,-,N/A,,Mostly Cloudy,150,2013-05-07 23:55:00
8:15 PM,64.4,53.6,68,29.95,10.0,SSE,5.8,-,N/A,,Scattered Clouds,160,2013-05-08 00:15:00
8:35 PM,62.6,53.6,72,29.95,10.0,SE,5.8,-,N/A,,Scattered Clouds,130,2013-05-08 00:35:00
8:55 PM,62.6,53.6,72,29.95,10.0,SE,4.6,-,N/A,,Clear,130,2013-05-08 00:55:00
9:15 PM,60.8,53.6,77,29.95,10.0,SE,3.5,-,N/A,,Clear,140,2013-05-08 01:15:00
9:35 PM,59.0,53.6,82,29.96,10.0,SE,4.6,-,N/A,,Clear,140,2013-05-08 01:35:00
9:55 PM,59.0,53.6,82,29.97,10.0,South,4.6,-,N/A,,Clear,170,2013-05-08 01:55:00
10:15 PM,59.0,53.6,82,29.97,10.0,SSE,6.9,-,N/A,,Clear,150,2013-05-08 02:15:00
10:35 PM,59.0,53.6,82,29.98,10.0,SSE,4.6,-,N/A,,Clear,150,2013-05-08 02:35:00
10:55 PM,57.2,53.6,88,29.98,10.0,SSE,4.6,-,N/A,,Clear,160,2013-05-08 02:55:00
11:15 PM,57.2,53.6,88,29.98,10.0,SSE,4.6,-,N/A,,Clear,160,2013-05-08 03:15:00
11:35 PM,57.2,53.6,88,29.98,10.0,SE,3.5,-,N/A,,Clear,140,2013-05-08 03:35:00
11:55 PM,57.2,53.6,88,29.98,10.0,Calm,Calm,-,N/A,,Clear,0,2013-05-08 03:55:00